Arbutus, Maryland
Current Conditions -  °F | °C
As of 2:54 PM on Monday 22 Dec 2014 (Local Time) from KBWI Reporting Station
Light Rain Light Rain  
Wind Chill:   Ceiling: 4300
Heat Index:   Visibility: 2.5mi
Dew Point: -1°   Wind: 0mph
Humidity: 85%   Direction: NA
Pressure: 30.18"   Gusts: NA
Location:  39.2187°N, 76.722°W
Report Text: KBWI 221954Z 00000KT 2 1/2SM -RA BR OVC043 02/M01 A3018 RMK AO2 SLP222 P0002 T00171006
Loading
Personal Weather Stations






























Interactive Weather Map New forecast layout! Learn more

10-Day Weather Forecast

Advertisements
Track Severe Weather on mobile